sensor_id;sensor_type;location;lat;lon;timestamp;P1;durP1;ratioP1;P2;durP2;ratioP2
46589;SDS011;32313;48.722;9.362;2023-08-24T00:00:40;13.70;;;12.07;;
46589;SDS011;32313;48.722;9.362;2023-08-24T00:03:06;13.13;;;11.73;;
46589;SDS011;32313;48.722;9.362;2023-08-24T00:05:33;12.60;;;11.40;;
46589;SDS011;32313;48.722;9.362;2023-08-24T00:08:03;13.53;;;11.30;;
46589;SDS011;32313;48.722;9.362;2023-08-24T00:10:33;11.83;;;10.80;;
46589;SDS011;32313;48.722;9.362;2023-08-24T00:12:59;13.03;;;11.70;;
46589;SDS011;32313;48.722;9.362;2023-08-24T00:15:25;12.87;;;11.73;;
46589;SDS011;32313;48.722;9.362;2023-08-24T00:17:51;12.63;;;11.60;;
46589;SDS011;32313;48.722;9.362;2023-08-24T00:20:18;12.10;;;11.03;;
46589;SDS011;32313;48.722;9.362;2023-08-24T00:22:45;13.23;;;11.83;;
46589;SDS011;32313;48.722;9.362;2023-08-24T00:25:11;12.07;;;10.93;;
46589;SDS011;32313;48.722;9.362;2023-08-24T00:27:37;13.40;;;11.97;;
46589;SDS011;32313;48.722;9.362;2023-08-24T00:30:04;12.43;;;11.27;;
46589;SDS011;32313;48.722;9.362;2023-08-24T00:32:32;12.87;;;11.60;;
46589;SDS011;32313;48.722;9.362;2023-08-24T00:34:59;13.30;;;12.20;;
46589;SDS011;32313;48.722;9.362;2023-08-24T00:37:31;12.90;;;11.43;;
46589;SDS011;32313;48.722;9.362;2023-08-24T00:39:59;12.47;;;11.20;;
46589;SDS011;32313;48.722;9.362;2023-08-24T00:42:25;12.90;;;11.60;;
46589;SDS011;32313;48.722;9.362;2023-08-24T00:44:51;13.20;;;11.90;;
46589;SDS011;32313;48.722;9.362;2023-08-24T00:47:17;13.97;;;12.67;;
46589;SDS011;32313;48.722;9.362;2023-08-24T00:49:43;13.70;;;12.43;;
46589;SDS011;32313;48.722;9.362;2023-08-24T00:52:09;14.73;;;13.43;;
46589;SDS011;32313;48.722;9.362;2023-08-24T00:54:35;12.17;;;11.13;;
46589;SDS011;32313;48.722;9.362;2023-08-24T00:57:04;14.77;;;13.57;;
46589;SDS011;32313;48.722;9.362;2023-08-24T00:59:31;14.77;;;13.40;;
46589;SDS011;32313;48.722;9.362;2023-08-24T01:01:58;12.93;;;11.80;;
46589;SDS011;32313;48.722;9.362;2023-08-24T01:04:24;14.87;;;13.67;;
46589;SDS011;32313;48.722;9.362;2023-08-24T01:06:50;14.13;;;12.73;;
46589;SDS011;32313;48.722;9.362;2023-08-24T01:09:17;12.47;;;11.37;;
46589;SDS011;32313;48.722;9.362;2023-08-24T01:11:59;13.93;;;12.77;;
46589;SDS011;32313;48.722;9.362;2023-08-24T01:17:23;15.63;;;14.20;;
46589;SDS011;32313;48.722;9.362;2023-08-24T01:19:52;14.60;;;13.10;;
46589;SDS011;32313;48.722;9.362;2023-08-24T01:28:02;15.07;;;13.70;;
46589;SDS011;32313;48.722;9.362;2023-08-24T01:30:30;15.97;;;14.67;;
46589;SDS011;32313;48.722;9.362;2023-08-24T01:32:58;16.60;;;15.10;;
46589;SDS011;32313;48.722;9.362;2023-08-24T01:35:24;15.93;;;14.57;;
46589;SDS011;32313;48.722;9.362;2023-08-24T01:37:50;16.63;;;15.27;;
46589;SDS011;32313;48.722;9.362;2023-08-24T01:40:23;16.60;;;15.30;;
46589;SDS011;32313;48.722;9.362;2023-08-24T01:42:59;16.47;;;14.93;;
46589;SDS011;32313;48.722;9.362;2023-08-24T01:45:29;16.60;;;14.97;;
46589;SDS011;32313;48.722;9.362;2023-08-24T01:47:56;16.87;;;15.43;;
46589;SDS011;32313;48.722;9.362;2023-08-24T01:50:24;17.57;;;15.97;;
46589;SDS011;32313;48.722;9.362;2023-08-24T01:52:50;15.67;;;14.27;;
46589;SDS011;32313;48.722;9.362;2023-08-24T01:55:18;15.97;;;14.57;;
46589;SDS011;32313;48.722;9.362;2023-08-24T01:57:45;17.80;;;16.20;;
46589;SDS011;32313;48.722;9.362;2023-08-24T02:00:11;16.57;;;14.87;;
46589;SDS011;32313;48.722;9.362;2023-08-24T02:02:41;16.60;;;15.13;;
46589;SDS011;32313;48.722;9.362;2023-08-24T02:05:07;16.20;;;14.90;;
46589;SDS011;32313;48.722;9.362;2023-08-24T02:07:38;17.73;;;16.23;;
46589;SDS011;32313;48.722;9.362;2023-08-24T02:10:04;17.30;;;15.77;;
46589;SDS011;32313;48.722;9.362;2023-08-24T02:12:30;17.40;;;15.77;;
46589;SDS011;32313;48.722;9.362;2023-08-24T02:14:55;16.60;;;15.27;;
46589;SDS011;32313;48.722;9.362;2023-08-24T02:17:21;17.10;;;15.70;;
46589;SDS011;32313;48.722;9.362;2023-08-24T02:19:47;16.50;;;15.10;;
46589;SDS011;32313;48.722;9.362;2023-08-24T02:22:13;16.03;;;14.67;;
46589;SDS011;32313;48.722;9.362;2023-08-24T02:24:39;17.00;;;15.60;;
46589;SDS011;32313;48.722;9.362;2023-08-24T02:27:04;18.23;;;16.63;;
46589;SDS011;32313;48.722;9.362;2023-08-24T02:29:30;17.43;;;15.93;;
46589;SDS011;32313;48.722;9.362;2023-08-24T02:31:56;18.80;;;17.07;;
46589;SDS011;32313;48.722;9.362;2023-08-24T02:34:21;19.20;;;17.70;;
46589;SDS011;32313;48.722;9.362;2023-08-24T02:36:47;18.60;;;16.83;;
46589;SDS011;32313;48.722;9.362;2023-08-24T02:39:13;16.60;;;15.07;;
46589;SDS011;32313;48.722;9.362;2023-08-24T02:41:39;19.03;;;17.07;;
46589;SDS011;32313;48.722;9.362;2023-08-24T02:44:04;16.37;;;15.07;;
46589;SDS011;32313;48.722;9.362;2023-08-24T02:46:30;18.63;;;16.67;;
46589;SDS011;32313;48.722;9.362;2023-08-24T02:48:56;16.90;;;15.50;;
46589;SDS011;32313;48.722;9.362;2023-08-24T02:51:22;17.97;;;16.47;;
46589;SDS011;32313;48.722;9.362;2023-08-24T02:53:48;18.93;;;17.43;;
46589;SDS011;32313;48.722;9.362;2023-08-24T02:56:15;19.60;;;17.90;;
46589;SDS011;32313;48.722;9.362;2023-08-24T02:58:41;21.27;;;19.17;;
46589;SDS011;32313;48.722;9.362;2023-08-24T03:01:07;18.33;;;16.63;;
46589;SDS011;32313;48.722;9.362;2023-08-24T03:03:33;18.33;;;16.73;;
46589;SDS011;32313;48.722;9.362;2023-08-24T03:06:03;19.23;;;17.57;;
46589;SDS011;32313;48.722;9.362;2023-08-24T03:08:31;18.33;;;16.80;;
46589;SDS011;32313;48.722;9.362;2023-08-24T03:10:58;19.87;;;18.17;;
46589;SDS011;32313;48.722;9.362;2023-08-24T03:13:25;18.53;;;17.00;;
46589;SDS011;32313;48.722;9.362;2023-08-24T03:15:53;17.43;;;15.93;;
46589;SDS011;32313;48.722;9.362;2023-08-24T03:18:19;17.23;;;15.73;;
46589;SDS011;32313;48.722;9.362;2023-08-24T03:20:45;17.03;;;15.47;;
46589;SDS011;32313;48.722;9.362;2023-08-24T03:23:14;17.03;;;15.47;;
46589;SDS011;32313;48.722;9.362;2023-08-24T03:25:41;17.10;;;15.60;;
46589;SDS011;32313;48.722;9.362;2023-08-24T03:28:07;16.73;;;15.40;;
46589;SDS011;32313;48.722;9.362;2023-08-24T03:30:37;17.47;;;16.10;;
46589;SDS011;32313;48.722;9.362;2023-08-24T03:33:12;17.80;;;16.13;;
46589;SDS011;32313;48.722;9.362;2023-08-24T03:35:38;17.73;;;16.27;;
46589;SDS011;32313;48.722;9.362;2023-08-24T03:38:05;18.57;;;17.00;;
46589;SDS011;32313;48.722;9.362;2023-08-24T03:40:30;16.47;;;15.03;;
46589;SDS011;32313;48.722;9.362;2023-08-24T03:42:56;16.83;;;15.43;;
46589;SDS011;32313;48.722;9.362;2023-08-24T03:45:22;15.97;;;14.67;;
46589;SDS011;32313;48.722;9.362;2023-08-24T03:47:48;19.27;;;17.47;;
46589;SDS011;32313;48.722;9.362;2023-08-24T03:50:14;16.90;;;15.63;;
46589;SDS011;32313;48.722;9.362;2023-08-24T03:52:40;21.43;;;19.63;;
46589;SDS011;32313;48.722;9.362;2023-08-24T03:55:07;19.83;;;18.33;;
46589;SDS011;32313;48.722;9.362;2023-08-24T03:57:33;17.57;;;15.90;;
46589;SDS011;32313;48.722;9.362;2023-08-24T04:00:00;18.77;;;17.10;;
46589;SDS011;32313;48.722;9.362;2023-08-24T04:02:39;18.73;;;16.83;;
46589;SDS011;32313;48.722;9.362;2023-08-24T04:05:05;19.93;;;17.97;;
46589;SDS011;32313;48.722;9.362;2023-08-24T04:07:31;18.40;;;16.60;;
46589;SDS011;32313;48.722;9.362;2023-08-24T04:09:56;17.50;;;15.83;;
46589;SDS011;32313;48.722;9.362;2023-08-24T04:12:22;17.43;;;15.87;;
46589;SDS011;32313;48.722;9.362;2023-08-24T04:14:48;17.83;;;16.23;;
46589;SDS011;32313;48.722;9.362;2023-08-24T04:17:14;16.47;;;14.50;;
46589;SDS011;32313;48.722;9.362;2023-08-24T04:19:40;21.80;;;14.47;;
46589;SDS011;32313;48.722;9.362;2023-08-24T04:22:05;16.50;;;14.97;;
46589;SDS011;32313;48.722;9.362;2023-08-24T04:24:31;17.90;;;16.00;;
46589;SDS011;32313;48.722;9.362;2023-08-24T04:26:56;23.00;;;16.27;;
46589;SDS011;32313;48.722;9.362;2023-08-24T04:29:22;17.07;;;14.60;;
46589;SDS011;32313;48.722;9.362;2023-08-24T04:31:48;17.53;;;15.80;;
46589;SDS011;32313;48.722;9.362;2023-08-24T04:34:13;18.47;;;16.57;;
46589;SDS011;32313;48.722;9.362;2023-08-24T04:36:39;17.37;;;14.83;;
46589;SDS011;32313;48.722;9.362;2023-08-24T04:39:05;15.27;;;13.87;;
46589;SDS011;32313;48.722;9.362;2023-08-24T04:41:30;17.03;;;15.17;;
46589;SDS011;32313;48.722;9.362;2023-08-24T04:43:56;17.37;;;14.40;;
46589;SDS011;32313;48.722;9.362;2023-08-24T04:46:22;17.27;;;15.60;;
46589;SDS011;32313;48.722;9.362;2023-08-24T04:48:47;14.77;;;13.23;;
46589;SDS011;32313;48.722;9.362;2023-08-24T04:51:13;15.17;;;13.10;;
46589;SDS011;32313;48.722;9.362;2023-08-24T04:53:39;15.40;;;13.97;;
46589;SDS011;32313;48.722;9.362;2023-08-24T04:56:04;16.47;;;13.17;;
46589;SDS011;32313;48.722;9.362;2023-08-24T04:58:30;14.30;;;13.13;;
46589;SDS011;32313;48.722;9.362;2023-08-24T05:00:57;15.07;;;13.20;;
46589;SDS011;32313;48.722;9.362;2023-08-24T05:03:23;15.10;;;13.70;;
46589;SDS011;32313;48.722;9.362;2023-08-24T05:05:49;14.97;;;13.60;;
46589;SDS011;32313;48.722;9.362;2023-08-24T05:08:14;14.30;;;12.90;;
46589;SDS011;32313;48.722;9.362;2023-08-24T05:10:40;14.53;;;13.23;;
46589;SDS011;32313;48.722;9.362;2023-08-24T05:13:06;13.83;;;12.53;;
46589;SDS011;32313;48.722;9.362;2023-08-24T05:15:32;13.77;;;12.17;;
46589;SDS011;32313;48.722;9.362;2023-08-24T05:17:57;15.60;;;11.93;;
46589;SDS011;32313;48.722;9.362;2023-08-24T05:20:27;15.87;;;14.07;;
46589;SDS011;32313;48.722;9.362;2023-08-24T05:22:53;15.47;;;13.47;;
46589;SDS011;32313;48.722;9.362;2023-08-24T05:25:23;14.93;;;13.53;;
46589;SDS011;32313;48.722;9.362;2023-08-24T05:27:48;13.43;;;12.33;;
46589;SDS011;32313;48.722;9.362;2023-08-24T05:30:14;15.97;;;14.43;;
46589;SDS011;32313;48.722;9.362;2023-08-24T05:32:40;14.27;;;12.57;;
46589;SDS011;32313;48.722;9.362;2023-08-24T05:35:06;13.13;;;11.83;;
46589;SDS011;32313;48.722;9.362;2023-08-24T05:37:33;16.43;;;12.73;;
46589;SDS011;32313;48.722;9.362;2023-08-24T05:39:59;15.80;;;12.73;;
46589;SDS011;32313;48.722;9.362;2023-08-24T05:42:25;17.87;;;13.13;;
46589;SDS011;32313;48.722;9.362;2023-08-24T05:44:51;15.77;;;12.50;;
46589;SDS011;32313;48.722;9.362;2023-08-24T05:47:16;21.30;;;12.97;;
46589;SDS011;32313;48.722;9.362;2023-08-24T05:49:42;18.27;;;11.87;;
46589;SDS011;32313;48.722;9.362;2023-08-24T05:52:08;14.93;;;12.63;;
46589;SDS011;32313;48.722;9.362;2023-08-24T05:54:35;15.23;;;13.03;;
46589;SDS011;32313;48.722;9.362;2023-08-24T05:57:01;12.97;;;11.37;;
46589;SDS011;32313;48.722;9.362;2023-08-24T05:59:29;13.30;;;11.30;;
46589;SDS011;32313;48.722;9.362;2023-08-24T06:01:55;16.40;;;12.17;;
46589;SDS011;32313;48.722;9.362;2023-08-24T06:04:21;12.07;;;10.93;;
46589;SDS011;32313;48.722;9.362;2023-08-24T06:06:47;20.03;;;12.93;;
46589;SDS011;32313;48.722;9.362;2023-08-24T06:09:12;15.20;;;12.53;;
46589;SDS011;32313;48.722;9.362;2023-08-24T06:11:40;13.67;;;11.13;;
46589;SDS011;32313;48.722;9.362;2023-08-24T06:14:05;12.80;;;10.43;;
46589;SDS011;32313;48.722;9.362;2023-08-24T06:16:31;11.47;;;10.30;;
46589;SDS011;32313;48.722;9.362;2023-08-24T06:18:57;11.30;;;10.27;;
46589;SDS011;32313;48.722;9.362;2023-08-24T06:21:23;10.83;;;9.73;;
46589;SDS011;32313;48.722;9.362;2023-08-24T06:23:48;11.53;;;9.77;;
46589;SDS011;32313;48.722;9.362;2023-08-24T06:26:14;11.53;;;10.40;;
46589;SDS011;32313;48.722;9.362;2023-08-24T06:28:49;9.20;;;8.37;;
46589;SDS011;32313;48.722;9.362;2023-08-24T06:31:15;10.10;;;9.07;;
46589;SDS011;32313;48.722;9.362;2023-08-24T06:33:41;8.87;;;7.97;;
46589;SDS011;32313;48.722;9.362;2023-08-24T06:36:07;11.10;;;8.43;;
46589;SDS011;32313;48.722;9.362;2023-08-24T06:38:37;12.30;;;9.70;;
46589;SDS011;32313;48.722;9.362;2023-08-24T06:41:02;10.17;;;7.97;;
46589;SDS011;32313;48.722;9.362;2023-08-24T06:43:28;11.00;;;8.27;;
46589;SDS011;32313;48.722;9.362;2023-08-24T06:45:54;10.87;;;8.17;;
46589;SDS011;32313;48.722;9.362;2023-08-24T06:48:20;9.60;;;8.60;;
46589;SDS011;32313;48.722;9.362;2023-08-24T06:50:45;8.83;;;7.80;;
46589;SDS011;32313;48.722;9.362;2023-08-24T06:53:11;9.33;;;7.70;;
46589;SDS011;32313;48.722;9.362;2023-08-24T06:55:37;10.43;;;8.40;;
46589;SDS011;32313;48.722;9.362;2023-08-24T06:58:02;8.60;;;7.80;;
46589;SDS011;32313;48.722;9.362;2023-08-24T07:00:31;9.33;;;8.37;;
46589;SDS011;32313;48.722;9.362;2023-08-24T07:02:58;10.17;;;7.80;;
46589;SDS011;32313;48.722;9.362;2023-08-24T07:05:24;10.87;;;8.37;;
46589;SDS011;32313;48.722;9.362;2023-08-24T07:07:50;8.30;;;7.50;;
46589;SDS011;32313;48.722;9.362;2023-08-24T07:10:16;8.93;;;8.03;;
46589;SDS011;32313;48.722;9.362;2023-08-24T07:12:42;9.50;;;8.13;;
46589;SDS011;32313;48.722;9.362;2023-08-24T07:15:11;10.80;;;8.20;;
46589;SDS011;32313;48.722;9.362;2023-08-24T07:17:37;8.50;;;7.60;;
46589;SDS011;32313;48.722;9.362;2023-08-24T07:20:04;8.97;;;7.80;;
46589;SDS011;32313;48.722;9.362;2023-08-24T07:22:39;11.97;;;8.17;;
46589;SDS011;32313;48.722;9.362;2023-08-24T07:25:05;8.70;;;7.80;;
46589;SDS011;32313;48.722;9.362;2023-08-24T07:27:34;7.73;;;7.03;;
46589;SDS011;32313;48.722;9.362;2023-08-24T07:30:01;8.00;;;7.20;;
46589;SDS011;32313;48.722;9.362;2023-08-24T07:32:30;7.17;;;6.57;;
46589;SDS011;32313;48.722;9.362;2023-08-24T07:34:56;9.00;;;6.67;;
46589;SDS011;32313;48.722;9.362;2023-08-24T07:37:24;8.60;;;6.30;;
46589;SDS011;32313;48.722;9.362;2023-08-24T07:39:50;7.90;;;6.10;;
46589;SDS011;32313;48.722;9.362;2023-08-24T07:42:19;7.73;;;5.83;;
46589;SDS011;32313;48.722;9.362;2023-08-24T07:44:46;6.17;;;5.40;;
46589;SDS011;32313;48.722;9.362;2023-08-24T07:47:13;10.53;;;6.30;;
46589;SDS011;32313;48.722;9.362;2023-08-24T07:49:39;9.03;;;6.43;;
46589;SDS011;32313;48.722;9.362;2023-08-24T07:52:11;7.07;;;5.57;;
46589;SDS011;32313;48.722;9.362;2023-08-24T07:54:37;8.13;;;5.90;;
46589;SDS011;32313;48.722;9.362;2023-08-24T07:57:06;5.93;;;5.33;;
46589;SDS011;32313;48.722;9.362;2023-08-24T07:59:32;5.33;;;4.83;;
46589;SDS011;32313;48.722;9.362;2023-08-24T08:01:58;6.83;;;5.83;;
46589;SDS011;32313;48.722;9.362;2023-08-24T08:04:24;6.83;;;5.00;;
46589;SDS011;32313;48.722;9.362;2023-08-24T08:06:49;9.27;;;5.40;;
46589;SDS011;32313;48.722;9.362;2023-08-24T08:09:15;6.40;;;4.93;;
46589;SDS011;32313;48.722;9.362;2023-08-24T08:11:42;4.93;;;4.40;;
46589;SDS011;32313;48.722;9.362;2023-08-24T08:14:08;6.40;;;4.63;;
46589;SDS011;32313;48.722;9.362;2023-08-24T08:16:34;5.40;;;4.82;;
46589;SDS011;32313;48.722;9.362;2023-08-24T08:19:01;6.82;;;4.28;;
46589;SDS011;32313;48.722;9.362;2023-08-24T08:21:27;7.18;;;4.97;;
46589;SDS011;32313;48.722;9.362;2023-08-24T08:23:53;5.45;;;4.13;;
46589;SDS011;32313;48.722;9.362;2023-08-24T08:26:18;8.00;;;5.03;;
46589;SDS011;32313;48.722;9.362;2023-08-24T08:28:44;6.97;;;4.93;;
46589;SDS011;32313;48.722;9.362;2023-08-24T08:31:10;5.70;;;4.85;;
46589;SDS011;32313;48.722;9.362;2023-08-24T08:33:35;6.32;;;5.00;;
46589;SDS011;32313;48.722;9.362;2023-08-24T08:36:01;6.75;;;4.72;;
46589;SDS011;32313;48.722;9.362;2023-08-24T08:38:28;7.25;;;4.97;;
46589;SDS011;32313;48.722;9.362;2023-08-24T08:40:54;8.10;;;4.50;;
46589;SDS011;32313;48.722;9.362;2023-08-24T08:43:23;7.25;;;4.38;;
46589;SDS011;32313;48.722;9.362;2023-08-24T08:45:50;5.88;;;4.60;;
46589;SDS011;32313;48.722;9.362;2023-08-24T08:48:18;6.55;;;5.00;;
46589;SDS011;32313;48.722;9.362;2023-08-24T08:50:49;6.72;;;4.40;;
46589;SDS011;32313;48.722;9.362;2023-08-24T08:53:16;7.70;;;4.13;;
46589;SDS011;32313;48.722;9.362;2023-08-24T08:55:48;6.93;;;4.18;;
46589;SDS011;32313;48.722;9.362;2023-08-24T08:58:18;6.18;;;4.10;;
46589;SDS011;32313;48.722;9.362;2023-08-24T09:00:45;8.10;;;4.75;;
46589;SDS011;32313;48.722;9.362;2023-08-24T09:03:13;5.70;;;4.22;;
46589;SDS011;32313;48.722;9.362;2023-08-24T09:05:42;8.88;;;4.20;;
46589;SDS011;32313;48.722;9.362;2023-08-24T09:08:08;5.90;;;3.97;;
46589;SDS011;32313;48.722;9.362;2023-08-24T09:10:35;5.13;;;3.90;;
46589;SDS011;32313;48.722;9.362;2023-08-24T09:13:00;4.55;;;3.90;;
46589;SDS011;32313;48.722;9.362;2023-08-24T09:15:26;5.80;;;3.95;;
46589;SDS011;32313;48.722;9.362;2023-08-24T09:17:53;5.25;;;3.85;;
46589;SDS011;32313;48.722;9.362;2023-08-24T09:20:22;5.85;;;4.15;;
46589;SDS011;32313;48.722;9.362;2023-08-24T09:22:52;6.28;;;4.00;;
46589;SDS011;32313;48.722;9.362;2023-08-24T09:25:20;3.80;;;3.40;;
46589;SDS011;32313;48.722;9.362;2023-08-24T09:27:45;7.05;;;3.70;;
46589;SDS011;32313;48.722;9.362;2023-08-24T09:30:11;5.10;;;3.60;;
46589;SDS011;32313;48.722;9.362;2023-08-24T09:32:37;4.28;;;3.70;;
46589;SDS011;32313;48.722;9.362;2023-08-24T09:35:03;5.22;;;3.65;;
46589;SDS011;32313;48.722;9.362;2023-08-24T09:37:33;6.60;;;3.67;;
46589;SDS011;32313;48.722;9.362;2023-08-24T09:40:02;8.48;;;4.20;;
46589;SDS011;32313;48.722;9.362;2023-08-24T09:42:36;8.30;;;3.65;;
46589;SDS011;32313;48.722;9.362;2023-08-24T09:45:07;6.45;;;4.10;;
46589;SDS011;32313;48.722;9.362;2023-08-24T09:47:36;4.97;;;3.45;;
46589;SDS011;32313;48.722;9.362;2023-08-24T09:50:02;6.95;;;3.45;;
46589;SDS011;32313;48.722;9.362;2023-08-24T09:52:31;5.50;;;3.83;;
46589;SDS011;32313;48.722;9.362;2023-08-24T09:55:02;4.68;;;3.42;;
46589;SDS011;32313;48.722;9.362;2023-08-24T09:57:32;5.57;;;4.05;;
46589;SDS011;32313;48.722;9.362;2023-08-24T10:00:01;5.68;;;3.78;;
46589;SDS011;32313;48.722;9.362;2023-08-24T10:02:35;6.60;;;3.90;;
46589;SDS011;32313;48.722;9.362;2023-08-24T10:05:04;6.38;;;3.95;;
46589;SDS011;32313;48.722;9.362;2023-08-24T10:07:32;5.63;;;3.60;;
46589;SDS011;32313;48.722;9.362;2023-08-24T10:10:03;4.43;;;3.40;;
46589;SDS011;32313;48.722;9.362;2023-08-24T10:12:36;7.25;;;3.70;;
46589;SDS011;32313;48.722;9.362;2023-08-24T10:15:06;6.22;;;3.30;;
46589;SDS011;32313;48.722;9.362;2023-08-24T10:17:34;6.25;;;3.85;;
46589;SDS011;32313;48.722;9.362;2023-08-24T10:20:02;7.22;;;3.63;;
46589;SDS011;32313;48.722;9.362;2023-08-24T10:22:34;3.50;;;3.20;;
46589;SDS011;32313;48.722;9.362;2023-08-24T10:25:00;3.63;;;3.30;;
46589;SDS011;32313;48.722;9.362;2023-08-24T10:27:27;4.28;;;3.88;;
46589;SDS011;32313;48.722;9.362;2023-08-24T10:29:55;7.18;;;4.10;;
46589;SDS011;32313;48.722;9.362;2023-08-24T10:32:26;5.50;;;3.75;;
46589;SDS011;32313;48.722;9.362;2023-08-24T10:34:52;4.80;;;3.80;;
46589;SDS011;32313;48.722;9.362;2023-08-24T10:37:24;4.85;;;3.85;;
46589;SDS011;32313;48.722;9.362;2023-08-24T10:39:52;5.43;;;4.40;;
46589;SDS011;32313;48.722;9.362;2023-08-24T10:42:17;4.45;;;4.03;;
46589;SDS011;32313;48.722;9.362;2023-08-24T10:44:46;4.63;;;4.05;;
46589;SDS011;32313;48.722;9.362;2023-08-24T10:47:14;4.30;;;3.90;;
46589;SDS011;32313;48.722;9.362;2023-08-24T10:52:23;8.13;;;4.53;;
46589;SDS011;32313;48.722;9.362;2023-08-24T10:55:03;7.43;;;4.22;;
46589;SDS011;32313;48.722;9.362;2023-08-24T10:57:39;5.88;;;4.30;;
46589;SDS011;32313;48.722;9.362;2023-08-24T11:00:07;8.20;;;3.88;;
46589;SDS011;32313;48.722;9.362;2023-08-24T11:05:16;6.43;;;3.78;;
46589;SDS011;32313;48.722;9.362;2023-08-24T11:07:53;7.38;;;4.38;;
46589;SDS011;32313;48.722;9.362;2023-08-24T11:10:20;4.00;;;3.60;;
46589;SDS011;32313;48.722;9.362;2023-08-24T11:15:38;6.93;;;3.70;;
46589;SDS011;32313;48.722;9.362;2023-08-24T11:21:00;5.60;;;4.03;;
46589;SDS011;32313;48.722;9.362;2023-08-24T11:23:29;6.43;;;4.28;;
46589;SDS011;32313;48.722;9.362;2023-08-24T11:25:56;6.82;;;4.13;;
46589;SDS011;32313;48.722;9.362;2023-08-24T11:28:25;5.60;;;3.70;;
46589;SDS011;32313;48.722;9.362;2023-08-24T11:30:52;7.47;;;4.10;;
46589;SDS011;32313;48.722;9.362;2023-08-24T11:33:28;4.93;;;4.07;;
46589;SDS011;32313;48.722;9.362;2023-08-24T11:35:59;4.22;;;3.83;;
46589;SDS011;32313;48.722;9.362;2023-08-24T11:38:37;7.88;;;4.18;;
46589;SDS011;32313;48.722;9.362;2023-08-24T11:41:10;4.82;;;3.75;;
46589;SDS011;32313;48.722;9.362;2023-08-24T11:43:43;5.53;;;4.10;;
46589;SDS011;32313;48.722;9.362;2023-08-24T11:46:10;5.03;;;3.97;;
46589;SDS011;32313;48.722;9.362;2023-08-24T11:48:37;4.90;;;3.85;;
46589;SDS011;32313;48.722;9.362;2023-08-24T11:51:06;3.97;;;3.63;;
46589;SDS011;32313;48.722;9.362;2023-08-24T11:53:37;5.45;;;4.05;;
46589;SDS011;32313;48.722;9.362;2023-08-24T11:56:10;5.03;;;3.88;;
46589;SDS011;32313;48.722;9.362;2023-08-24T11:58:40;6.13;;;3.40;;
46589;SDS011;32313;48.722;9.362;2023-08-24T12:01:08;6.50;;;3.85;;
46589;SDS011;32313;48.722;9.362;2023-08-24T12:03:35;6.50;;;3.80;;
46589;SDS011;32313;48.722;9.362;2023-08-24T12:06:02;4.22;;;3.55;;
46589;SDS011;32313;48.722;9.362;2023-08-24T12:08:37;4.82;;;3.72;;
46589;SDS011;32313;48.722;9.362;2023-08-24T12:11:09;3.80;;;3.50;;
46589;SDS011;32313;48.722;9.362;2023-08-24T12:13:38;6.25;;;4.07;;
46589;SDS011;32313;48.722;9.362;2023-08-24T12:16:09;5.70;;;3.78;;
46589;SDS011;32313;48.722;9.362;2023-08-24T12:18:35;6.32;;;4.28;;
46589;SDS011;32313;48.722;9.362;2023-08-24T12:21:11;5.43;;;3.92;;
46589;SDS011;32313;48.722;9.362;2023-08-24T12:23:38;5.63;;;3.60;;
46589;SDS011;32313;48.722;9.362;2023-08-24T12:26:03;3.90;;;3.50;;
46589;SDS011;32313;48.722;9.362;2023-08-24T12:28:32;5.65;;;3.83;;
46589;SDS011;32313;48.722;9.362;2023-08-24T12:30:59;6.10;;;3.90;;
46589;SDS011;32313;48.722;9.362;2023-08-24T12:33:31;5.70;;;3.70;;
46589;SDS011;32313;48.722;9.362;2023-08-24T12:35:57;6.15;;;4.00;;
46589;SDS011;32313;48.722;9.362;2023-08-24T12:38:27;7.05;;;4.00;;
46589;SDS011;32313;48.722;9.362;2023-08-24T12:40:53;6.72;;;3.28;;
46589;SDS011;32313;48.722;9.362;2023-08-24T12:43:19;4.43;;;3.90;;
46589;SDS011;32313;48.722;9.362;2023-08-24T12:45:46;6.68;;;3.80;;
46589;SDS011;32313;48.722;9.362;2023-08-24T12:48:11;8.73;;;3.92;;
46589;SDS011;32313;48.722;9.362;2023-08-24T12:50:38;4.82;;;3.65;;
46589;SDS011;32313;48.722;9.362;2023-08-24T12:53:04;8.05;;;3.90;;
46589;SDS011;32313;48.722;9.362;2023-08-24T12:55:31;6.40;;;3.88;;
46589;SDS011;32313;48.722;9.362;2023-08-24T12:57:58;8.38;;;4.18;;
46589;SDS011;32313;48.722;9.362;2023-08-24T13:00:24;8.95;;;4.20;;
46589;SDS011;32313;48.722;9.362;2023-08-24T13:02:51;6.30;;;3.72;;
46589;SDS011;32313;48.722;9.362;2023-08-24T13:05:17;5.05;;;3.42;;
46589;SDS011;32313;48.722;9.362;2023-08-24T13:07:43;6.57;;;3.65;;
46589;SDS011;32313;48.722;9.362;2023-08-24T13:10:08;5.80;;;3.80;;
46589;SDS011;32313;48.722;9.362;2023-08-24T13:12:35;5.72;;;3.63;;
46589;SDS011;32313;48.722;9.362;2023-08-24T13:15:01;8.00;;;3.47;;
46589;SDS011;32313;48.722;9.362;2023-08-24T13:17:29;8.10;;;4.00;;
46589;SDS011;32313;48.722;9.362;2023-08-24T13:19:55;7.95;;;3.80;;
46589;SDS011;32313;48.722;9.362;2023-08-24T13:22:21;7.15;;;3.95;;
46589;SDS011;32313;48.722;9.362;2023-08-24T13:24:46;5.50;;;3.42;;
46589;SDS011;32313;48.722;9.362;2023-08-24T13:27:12;8.63;;;3.50;;
46589;SDS011;32313;48.722;9.362;2023-08-24T13:29:38;6.32;;;3.78;;
46589;SDS011;32313;48.722;9.362;2023-08-24T13:32:04;8.95;;;4.05;;
46589;SDS011;32313;48.722;9.362;2023-08-24T13:34:32;7.68;;;4.13;;
46589;SDS011;32313;48.722;9.362;2023-08-24T13:36:58;7.57;;;4.13;;
46589;SDS011;32313;48.722;9.362;2023-08-24T13:39:28;8.23;;;3.88;;
46589;SDS011;32313;48.722;9.362;2023-08-24T13:41:57;8.13;;;4.15;;
46589;SDS011;32313;48.722;9.362;2023-08-24T13:44:24;8.18;;;4.15;;
46589;SDS011;32313;48.722;9.362;2023-08-24T13:46:50;5.68;;;3.80;;
46589;SDS011;32313;48.722;9.362;2023-08-24T13:49:17;6.00;;;4.00;;
46589;SDS011;32313;48.722;9.362;2023-08-24T13:51:44;8.07;;;4.20;;
46589;SDS011;32313;48.722;9.362;2023-08-24T13:54:16;9.75;;;4.40;;
46589;SDS011;32313;48.722;9.362;2023-08-24T13:56:44;10.00;;;3.95;;
46589;SDS011;32313;48.722;9.362;2023-08-24T13:59:10;8.63;;;4.05;;
46589;SDS011;32313;48.722;9.362;2023-08-24T14:01:40;8.40;;;4.10;;
46589;SDS011;32313;48.722;9.362;2023-08-24T14:04:06;7.63;;;4.13;;
46589;SDS011;32313;48.722;9.362;2023-08-24T14:06:33;8.18;;;3.88;;
46589;SDS011;32313;48.722;9.362;2023-08-24T14:09:02;8.27;;;3.97;;
46589;SDS011;32313;48.722;9.362;2023-08-24T14:11:28;10.00;;;3.95;;
46589;SDS011;32313;48.722;9.362;2023-08-24T14:13:55;8.85;;;3.95;;
46589;SDS011;32313;48.722;9.362;2023-08-24T14:16:21;8.77;;;3.75;;
46589;SDS011;32313;48.722;9.362;2023-08-24T14:18:47;8.13;;;4.13;;
46589;SDS011;32313;48.722;9.362;2023-08-24T14:21:14;8.55;;;3.70;;
46589;SDS011;32313;48.722;9.362;2023-08-24T14:23:40;5.93;;;3.47;;
46589;SDS011;32313;48.722;9.362;2023-08-24T14:26:06;8.80;;;3.78;;
46589;SDS011;32313;48.722;9.362;2023-08-24T14:31:28;11.65;;;4.38;;
46589;SDS011;32313;48.722;9.362;2023-08-24T14:33:54;11.98;;;4.07;;
46589;SDS011;32313;48.722;9.362;2023-08-24T14:36:21;9.10;;;3.90;;
46589;SDS011;32313;48.722;9.362;2023-08-24T14:38:48;8.07;;;4.00;;
46589;SDS011;32313;48.722;9.362;2023-08-24T14:41:16;11.55;;;4.10;;
46589;SDS011;32313;48.722;9.362;2023-08-24T14:43:42;11.45;;;4.20;;
46589;SDS011;32313;48.722;9.362;2023-08-24T14:46:08;9.18;;;4.03;;
46589;SDS011;32313;48.722;9.362;2023-08-24T14:48:34;8.30;;;3.85;;
46589;SDS011;32313;48.722;9.362;2023-08-24T14:51:01;7.90;;;4.15;;
46589;SDS011;32313;48.722;9.362;2023-08-24T14:53:27;9.55;;;3.90;;
46589;SDS011;32313;48.722;9.362;2023-08-24T14:55:56;8.75;;;4.50;;
46589;SDS011;32313;48.722;9.362;2023-08-24T14:58:23;9.57;;;4.38;;